sensor_id;sensor_type;location;lat;lon;timestamp;pressure;altitude;pressure_sealevel;temperature;humidity
54172;BME280;40076;52.354;4.970;2023-02-02T00:01:59;102111.16;;;8.98;100.00
54172;BME280;40076;52.354;4.970;2023-02-02T00:04:28;102112.22;;;8.97;100.00
54172;BME280;40076;52.354;4.970;2023-02-02T00:06:56;102119.78;;;8.95;100.00
54172;BME280;40076;52.354;4.970;2023-02-02T00:09:34;102119.25;;;8.98;100.00
54172;BME280;40076;52.354;4.970;2023-02-02T00:12:04;102126.53;;;8.98;100.00
54172;BME280;40076;52.354;4.970;2023-02-02T00:14:35;102115.47;;;8.94;100.00
54172;BME280;40076;52.354;4.970;2023-02-02T00:17:02;102113.59;;;8.95;100.00
54172;BME280;40076;52.354;4.970;2023-02-02T00:19:31;102119.50;;;8.97;100.00
54172;BME280;40076;52.354;4.970;2023-02-02T00:21:57;102113.56;;;9.00;100.00
54172;BME280;40076;52.354;4.970;2023-02-02T00:24:25;102121.66;;;9.00;100.00
54172;BME280;40076;52.354;4.970;2023-02-02T00:26:54;102120.59;;;8.96;100.00
54172;BME280;40076;52.354;4.970;2023-02-02T00:29:26;102126.25;;;8.94;100.00
54172;BME280;40076;52.354;4.970;2023-02-02T00:31:52;102128.44;;;8.92;100.00
54172;BME280;40076;52.354;4.970;2023-02-02T00:34:22;102129.78;;;8.89;100.00
54172;BME280;40076;52.354;4.970;2023-02-02T00:36:50;102129.00;;;8.84;100.00
54172;BME280;40076;52.354;4.970;2023-02-02T00:39:18;102129.00;;;8.79;100.00
54172;BME280;40076;52.354;4.970;2023-02-02T00:41:45;102130.38;;;8.76;100.00
54172;BME280;40076;52.354;4.970;2023-02-02T00:44:13;102130.38;;;8.76;100.00
54172;BME280;40076;52.354;4.970;2023-02-02T00:46:57;102125.81;;;8.72;100.00
54172;BME280;40076;52.354;4.970;2023-02-02T00:49:22;102120.16;;;8.68;100.00
54172;BME280;40076;52.354;4.970;2023-02-02T00:51:47;102131.75;;;8.64;100.00
54172;BME280;40076;52.354;4.970;2023-02-02T00:54:13;102127.44;;;8.63;100.00
54172;BME280;40076;52.354;4.970;2023-02-02T00:56:39;102134.19;;;8.55;100.00
54172;BME280;40076;52.354;4.970;2023-02-02T00:59:04;102132.59;;;8.54;100.00
54172;BME280;40076;52.354;4.970;2023-02-02T01:01:29;102128.28;;;8.53;100.00
54172;BME280;40076;52.354;4.970;2023-02-02T01:03:55;102137.44;;;8.52;100.00
54172;BME280;40076;52.354;4.970;2023-02-02T01:06:20;102136.06;;;8.55;100.00
54172;BME280;40076;52.354;4.970;2023-02-02T01:08:45;102118.31;;;8.54;100.00
54172;BME280;40076;52.354;4.970;2023-02-02T01:11:11;102125.31;;;8.55;100.00
54172;BME280;40076;52.354;4.970;2023-02-02T01:13:36;102122.59;;;8.55;100.00
54172;BME280;40076;52.354;4.970;2023-02-02T01:16:03;102113.75;;;8.54;100.00
54172;BME280;40076;52.354;4.970;2023-02-02T01:18:28;102113.19;;;8.52;100.00
54172;BME280;40076;52.354;4.970;2023-02-02T01:21:03;102113.19;;;8.52;100.00
54172;BME280;40076;52.354;4.970;2023-02-02T01:23:32;102113.19;;;8.52;100.00
54172;BME280;40076;52.354;4.970;2023-02-02T01:26:00;102121.28;;;8.52;100.00
54172;BME280;40076;52.354;4.970;2023-02-02T01:28:26;102127.75;;;8.51;100.00
54172;BME280;40076;52.354;4.970;2023-02-02T01:30:52;102117.25;;;8.49;100.00
54172;BME280;40076;52.354;4.970;2023-02-02T01:33:21;102112.94;;;8.48;100.00
54172;BME280;40076;52.354;4.970;2023-02-02T01:35:52;102127.47;;;8.47;100.00
54172;BME280;40076;52.354;4.970;2023-02-02T01:38:20;102120.50;;;8.46;100.00
54172;BME280;40076;52.354;4.970;2023-02-02T01:40:55;102121.31;;;8.42;100.00
54172;BME280;40076;52.354;4.970;2023-02-02T01:43:24;102127.22;;;8.44;100.00
54172;BME280;40076;52.354;4.970;2023-02-02T01:45:51;102126.69;;;8.42;100.00
54172;BME280;40076;52.354;4.970;2023-02-02T01:48:23;102118.88;;;8.40;100.00
54172;BME280;40076;52.354;4.970;2023-02-02T01:50:56;102127.50;;;8.42;100.00
54172;BME280;40076;52.354;4.970;2023-02-02T01:53:32;102121.84;;;8.44;100.00
54172;BME280;40076;52.354;4.970;2023-02-02T01:55:58;102123.47;;;8.45;100.00
54172;BME280;40076;52.354;4.970;2023-02-02T01:58:30;102127.22;;;8.44;100.00
54172;BME280;40076;52.354;4.970;2023-02-02T02:00:56;102131.81;;;8.43;100.00
54172;BME280;40076;52.354;4.970;2023-02-02T02:03:25;102127.50;;;8.42;100.00
54172;BME280;40076;52.354;4.970;2023-02-02T02:06:13;102136.13;;;8.44;100.00
54172;BME280;40076;52.354;4.970;2023-02-02T02:08:45;102129.38;;;8.42;100.00
54172;BME280;40076;52.354;4.970;2023-02-02T02:11:12;102123.44;;;8.40;100.00
54172;BME280;40076;52.354;4.970;2023-02-02T02:13:38;102118.88;;;8.40;100.00
54172;BME280;40076;52.354;4.970;2023-02-02T02:16:45;102114.28;;;8.41;100.00
54172;BME280;40076;52.354;4.970;2023-02-02T02:26:02;102113.50;;;8.40;100.00
54172;BME280;40076;52.354;4.970;2023-02-02T02:31:57;102104.09;;;8.38;100.00
54172;BME280;40076;52.354;4.970;2023-02-02T02:34:32;102100.31;;;8.39;100.00
54172;BME280;40076;52.354;4.970;2023-02-02T02:37:21;102097.09;;;8.37;100.00
54172;BME280;40076;52.354;4.970;2023-02-02T02:40:02;102099.22;;;8.40;100.00
54172;BME280;40076;52.354;4.970;2023-02-02T02:42:34;102106.47;;;8.39;100.00
54172;BME280;40076;52.354;4.970;2023-02-02T02:45:04;102096.25;;;8.41;100.00
54172;BME280;40076;52.354;4.970;2023-02-02T02:47:34;102107.56;;;8.43;100.00
54172;BME280;40076;52.354;4.970;2023-02-02T02:50:01;102110.00;;;8.45;100.00
54172;BME280;40076;52.354;4.970;2023-02-02T02:52:34;102114.56;;;8.44;100.00
54172;BME280;40076;52.354;4.970;2023-02-02T02:55:00;102111.31;;;8.47;100.00
54172;BME280;40076;52.354;4.970;2023-02-02T02:58:04;102110.50;;;8.47;100.00
54172;BME280;40076;52.354;4.970;2023-02-02T03:00:41;102126.41;;;8.48;100.00
54172;BME280;40076;52.354;4.970;2023-02-02T03:03:34;102116.72;;;8.52;100.00
54172;BME280;40076;52.354;4.970;2023-02-02T03:06:42;102137.19;;;8.48;100.00
54172;BME280;40076;52.354;4.970;2023-02-02T03:09:14;102125.88;;;8.51;100.00
54172;BME280;40076;52.354;4.970;2023-02-02T03:11:42;102130.69;;;8.55;100.00
54172;BME280;40076;52.354;4.970;2023-02-02T03:14:08;102124.22;;;8.56;100.00
54172;BME280;40076;52.354;4.970;2023-02-02T03:16:37;102119.91;;;8.55;100.00
54172;BME280;40076;52.354;4.970;2023-02-02T03:19:04;102123.16;;;8.57;100.00
54172;BME280;40076;52.354;4.970;2023-02-02T03:21:30;102119.66;;;8.56;100.00
54172;BME280;40076;52.354;4.970;2023-02-02T03:23:56;102128.81;;;8.60;100.00
54172;BME280;40076;52.354;4.970;2023-02-02T03:26:21;102135.53;;;8.63;100.00
54172;BME280;40076;52.354;4.970;2023-02-02T03:29:08;102126.34;;;8.64;100.00
54172;BME280;40076;52.354;4.970;2023-02-02T03:31:33;102118.28;;;8.64;100.00
54172;BME280;40076;52.354;4.970;2023-02-02T03:33:58;102116.38;;;8.64;100.00
54172;BME280;40076;52.354;4.970;2023-02-02T03:36:24;102104.25;;;8.67;100.00
54172;BME280;40076;52.354;4.970;2023-02-02T03:38:49;102112.34;;;8.67;100.00
54172;BME280;40076;52.354;4.970;2023-02-02T03:41:15;102117.47;;;8.68;100.00
54172;BME280;40076;52.354;4.970;2023-02-02T03:43:40;102114.47;;;8.70;100.00
54172;BME280;40076;52.354;4.970;2023-02-02T03:46:05;102114.47;;;8.70;100.00
54172;BME280;40076;52.354;4.970;2023-02-02T03:48:34;102109.91;;;8.65;100.00
54172;BME280;40076;52.354;4.970;2023-02-02T03:51:07;102106.13;;;8.71;100.00
54172;BME280;40076;52.354;4.970;2023-02-02T03:53:36;102108.00;;;8.71;100.00
54172;BME280;40076;52.354;4.970;2023-02-02T03:56:05;102115.03;;;8.72;100.00
54172;BME280;40076;52.354;4.970;2023-02-02T03:58:30;102117.44;;;8.73;100.00
54172;BME280;40076;52.354;4.970;2023-02-02T04:01:03;102122.56;;;8.75;100.00
54172;BME280;40076;52.354;4.970;2023-02-02T04:03:29;102118.22;;;8.79;100.00
54172;BME280;40076;52.354;4.970;2023-02-02T04:05:54;102116.38;;;8.74;100.00
54172;BME280;40076;52.354;4.970;2023-02-02T04:08:19;102104.25;;;8.72;100.00
54172;BME280;40076;52.354;4.970;2023-02-02T04:10:45;102113.41;;;8.76;100.00
54172;BME280;40076;52.354;4.970;2023-02-02T04:13:10;102099.94;;;8.76;100.00
54172;BME280;40076;52.354;4.970;2023-02-02T04:15:35;102115.03;;;8.77;100.00
54172;BME280;40076;52.354;4.970;2023-02-02T04:18:04;102114.72;;;8.78;100.00
54172;BME280;40076;52.354;4.970;2023-02-02T04:20:29;102101.25;;;8.78;100.00
54172;BME280;40076;52.354;4.970;2023-02-02T04:22:55;102122.00;;;8.78;100.00
54172;BME280;40076;52.354;4.970;2023-02-02T04:25:20;102114.22;;;8.76;100.00
54172;BME280;40076;52.354;4.970;2023-02-02T04:27:45;102122.00;;;8.78;100.00
54172;BME280;40076;52.354;4.970;2023-02-02T04:30:11;102126.31;;;8.79;100.00
54172;BME280;40076;52.354;4.970;2023-02-02T04:32:36;102121.19;;;8.77;100.00
54172;BME280;40076;52.354;4.970;2023-02-02T04:35:02;102136.81;;;8.80;100.00
54172;BME280;40076;52.354;4.970;2023-02-02T04:37:30;102126.03;;;8.80;100.00
54172;BME280;40076;52.354;4.970;2023-02-02T04:39:55;102141.13;;;8.81;100.00
54172;BME280;40076;52.354;4.970;2023-02-02T04:42:21;102138.16;;;8.83;100.00
54172;BME280;40076;52.354;4.970;2023-02-02T04:44:46;102127.38;;;8.83;100.00
54172;BME280;40076;52.354;4.970;2023-02-02T04:47:12;102127.38;;;8.83;100.00
54172;BME280;40076;52.354;4.970;2023-02-02T04:49:37;102136.78;;;8.85;100.00
54172;BME280;40076;52.354;4.970;2023-02-02T04:52:03;102129.00;;;8.84;100.00
54172;BME280;40076;52.354;4.970;2023-02-02T04:54:29;102128.19;;;8.83;100.00
54172;BME280;40076;52.354;4.970;2023-02-02T04:56:54;102133.59;;;8.83;100.00
54172;BME280;40076;52.354;4.970;2023-02-02T04:59:19;102138.16;;;8.83;100.00
54172;BME280;40076;52.354;4.970;2023-02-02T05:01:45;102133.59;;;8.83;100.00
54172;BME280;40076;52.354;4.970;2023-02-02T05:04:10;102135.22;;;8.84;100.00
54172;BME280;40076;52.354;4.970;2023-02-02T05:06:39;102125.75;;;8.87;100.00
54172;BME280;40076;52.354;4.970;2023-02-02T05:09:04;102137.91;;;8.84;100.00
54172;BME280;40076;52.354;4.970;2023-02-02T05:11:29;102129.50;;;8.86;100.00
54172;BME280;40076;52.354;4.970;2023-02-02T05:13:55;102132.75;;;8.88;100.00
54172;BME280;40076;52.354;4.970;2023-02-02T05:16:21;102139.22;;;8.87;100.00
54172;BME280;40076;52.354;4.970;2023-02-02T05:18:52;102138.16;;;8.88;100.00
54172;BME280;40076;52.354;4.970;2023-02-02T05:21:21;102137.34;;;8.87;100.00
54172;BME280;40076;52.354;4.970;2023-02-02T05:23:47;102132.47;;;8.89;100.00
54172;BME280;40076;52.354;4.970;2023-02-02T05:26:22;102134.38;;;8.89;100.00
54172;BME280;40076;52.354;4.970;2023-02-02T05:28:52;102142.19;;;8.90;100.00
54172;BME280;40076;52.354;4.970;2023-02-02T05:31:20;102148.66;;;8.89;100.00
54172;BME280;40076;52.354;4.970;2023-02-02T05:33:53;102135.72;;;8.92;100.00
54172;BME280;40076;52.354;4.970;2023-02-02T05:36:22;102150.78;;;8.93;100.00
54172;BME280;40076;52.354;4.970;2023-02-02T05:38:50;102155.66;;;8.90;100.00
54172;BME280;40076;52.354;4.970;2023-02-02T05:41:15;102137.06;;;8.89;100.00
54172;BME280;40076;52.354;4.970;2023-02-02T05:43:41;102151.63;;;8.88;100.00
54172;BME280;40076;52.354;4.970;2023-02-02T05:46:08;102148.94;;;8.88;100.00
54172;BME280;40076;52.354;4.970;2023-02-02T05:48:34;102150.00;;;8.87;100.00
54172;BME280;40076;52.354;4.970;2023-02-02T05:51:13;102158.09;;;8.87;100.00
54172;BME280;40076;52.354;4.970;2023-02-02T05:53:43;102162.94;;;8.90;100.00
54172;BME280;40076;52.354;4.970;2023-02-02T05:56:12;102148.66;;;8.89;100.00
54172;BME280;40076;52.354;4.970;2023-02-02T05:58:41;102147.03;;;8.88;100.00
54172;BME280;40076;52.354;4.970;2023-02-02T06:01:10;102152.16;;;8.90;100.00
54172;BME280;40076;52.354;4.970;2023-02-02T06:03:35;102151.09;;;8.91;100.00
54172;BME280;40076;52.354;4.970;2023-02-02T06:06:01;102151.09;;;8.91;100.00
54172;BME280;40076;52.354;4.970;2023-02-02T06:08:30;102159.16;;;8.86;100.00
54172;BME280;40076;52.354;4.970;2023-02-02T06:10:55;102153.25;;;8.89;100.00
54172;BME280;40076;52.354;4.970;2023-02-02T06:13:21;102159.72;;;8.88;100.00
54172;BME280;40076;52.354;4.970;2023-02-02T06:15:47;102161.59;;;8.87;100.00
54172;BME280;40076;52.354;4.970;2023-02-02T06:18:12;102168.88;;;8.87;100.00
54172;BME280;40076;52.354;4.970;2023-02-02T06:20:38;102169.94;;;8.86;100.00
54172;BME280;40076;52.354;4.970;2023-02-02T06:23:04;102183.44;;;8.86;100.00
54172;BME280;40076;52.354;4.970;2023-02-02T06:25:30;102188.81;;;8.86;100.00
54172;BME280;40076;52.354;4.970;2023-02-02T06:27:56;102189.63;;;8.86;100.00
54172;BME280;40076;52.354;4.970;2023-02-02T06:30:22;102201.78;;;8.84;100.00
54172;BME280;40076;52.354;4.970;2023-02-02T06:32:50;102201.25;;;8.82;100.00
54172;BME280;40076;52.354;4.970;2023-02-02T06:35:16;102197.47;;;8.83;100.00
54172;BME280;40076;52.354;4.970;2023-02-02T06:37:48;102207.44;;;8.82;100.00
54172;BME280;40076;52.354;4.970;2023-02-02T06:40:16;102205.56;;;8.83;100.00
54172;BME280;40076;52.354;4.970;2023-02-02T06:42:41;102211.75;;;8.83;100.00
54172;BME280;40076;52.354;4.970;2023-02-02T06:45:07;102209.31;;;8.82;100.00
54172;BME280;40076;52.354;4.970;2023-02-02T06:47:33;102209.84;;;8.79;100.00
54172;BME280;40076;52.354;4.970;2023-02-02T06:49:58;102200.69;;;8.80;100.00
54172;BME280;40076;52.354;4.970;2023-02-02T06:52:23;102201.50;;;8.80;100.00
54172;BME280;40076;52.354;4.970;2023-02-02T06:54:52;102192.88;;;8.78;100.00
54172;BME280;40076;52.354;4.970;2023-02-02T06:57:17;102200.97;;;8.78;100.00
54172;BME280;40076;52.354;4.970;2023-02-02T06:59:46;102210.94;;;8.78;100.00
54172;BME280;40076;52.354;4.970;2023-02-02T07:02:11;102197.19;;;8.79;100.00
54172;BME280;40076;52.354;4.970;2023-02-02T07:04:37;102190.72;;;8.80;100.00
54172;BME280;40076;52.354;4.970;2023-02-02T07:07:03;102200.44;;;8.81;100.00
54172;BME280;40076;52.354;4.970;2023-02-02T07:09:31;102203.41;;;8.80;100.00
54172;BME280;40076;52.354;4.970;2023-02-02T07:11:57;102213.91;;;8.81;100.00
54172;BME280;40076;52.354;4.970;2023-02-02T07:14:22;102211.22;;;8.81;100.00
54172;BME280;40076;52.354;4.970;2023-02-02T07:16:51;102212.84;;;8.82;100.00
54172;BME280;40076;52.354;4.970;2023-02-02T07:19:16;102219.03;;;8.83;100.00
54172;BME280;40076;52.354;4.970;2023-02-02T07:21:44;102230.88;;;8.82;100.00
54172;BME280;40076;52.354;4.970;2023-02-02T07:24:09;102236.00;;;8.83;100.00
54172;BME280;40076;52.354;4.970;2023-02-02T07:26:35;102231.69;;;8.82;100.00
54172;BME280;40076;52.354;4.970;2023-02-02T07:29:00;102229.81;;;8.83;100.00
54172;BME280;40076;52.354;4.970;2023-02-02T07:31:26;102238.16;;;8.81;100.00
54172;BME280;40076;52.354;4.970;2023-02-02T07:33:52;102234.13;;;8.84;100.00
54172;BME280;40076;52.354;4.970;2023-02-02T07:36:20;102248.13;;;8.86;100.00
54172;BME280;40076;52.354;4.970;2023-02-02T07:38:47;102245.97;;;8.83;100.00
54172;BME280;40076;52.354;4.970;2023-02-02T07:41:14;102244.91;;;8.84;100.00
54172;BME280;40076;52.354;4.970;2023-02-02T07:43:40;102259.72;;;8.86;100.00
54172;BME280;40076;52.354;4.970;2023-02-02T07:46:07;102250.00;;;8.85;100.00
54172;BME280;40076;52.354;4.970;2023-02-02T07:48:35;102253.50;;;8.86;100.00
54172;BME280;40076;52.354;4.970;2023-02-02T07:51:06;102258.91;;;8.86;100.00
54172;BME280;40076;52.354;4.970;2023-02-02T07:53:32;102273.19;;;8.86;100.00
54172;BME280;40076;52.354;4.970;2023-02-02T07:56:16;102265.13;;;8.81;100.00
54172;BME280;40076;52.354;4.970;2023-02-02T07:58:42;102253.50;;;8.86;100.00
54172;BME280;40076;52.354;4.970;2023-02-02T08:01:10;102256.50;;;8.84;100.00
54172;BME280;40076;52.354;4.970;2023-02-02T08:03:39;102262.13;;;8.88;100.00
54172;BME280;40076;52.354;4.970;2023-02-02T08:06:13;102267.25;;;8.89;100.00
54172;BME280;40076;52.354;4.970;2023-02-02T08:08:39;102259.97;;;8.90;100.00
54172;BME280;40076;52.354;4.970;2023-02-02T08:11:07;102259.97;;;8.90;100.00
54172;BME280;40076;52.354;4.970;2023-02-02T08:13:33;102267.53;;;8.88;100.00
54172;BME280;40076;52.354;4.970;2023-02-02T08:15:59;102264.56;;;8.89;100.00
54172;BME280;40076;52.354;4.970;2023-02-02T08:18:24;102268.06;;;8.90;100.00
54172;BME280;40076;52.354;4.970;2023-02-02T08:20:50;102273.19;;;8.92;100.00
54172;BME280;40076;52.354;4.970;2023-02-02T08:23:17;102278.84;;;8.90;100.00
54172;BME280;40076;52.354;4.970;2023-02-02T08:25:48;102285.06;;;8.90;100.00
54172;BME280;40076;52.354;4.970;2023-02-02T08:28:17;102281.28;;;8.92;100.00
54172;BME280;40076;52.354;4.970;2023-02-02T08:30:43;102281.00;;;8.93;100.00
54172;BME280;40076;52.354;4.970;2023-02-02T08:33:08;102285.84;;;8.96;100.00
54172;BME280;40076;52.354;4.970;2023-02-02T08:35:38;102289.34;;;8.97;100.00
54172;BME280;40076;52.354;4.970;2023-02-02T08:38:04;102298.25;;;8.97;100.00
54172;BME280;40076;52.354;4.970;2023-02-02T08:40:31;102297.16;;;8.98;100.00
54172;BME280;40076;52.354;4.970;2023-02-02T08:42:57;102307.16;;;8.98;100.00
54172;BME280;40076;52.354;4.970;2023-02-02T08:45:24;102314.97;;;8.99;100.00
54172;BME280;40076;52.354;4.970;2023-02-02T08:47:49;102309.56;;;8.99;100.00
54172;BME280;40076;52.354;4.970;2023-02-02T08:50:16;102314.69;;;9.01;100.00
54172;BME280;40076;52.354;4.970;2023-02-02T08:52:41;102308.22;;;8.97;100.00
54172;BME280;40076;52.354;4.970;2023-02-02T08:55:07;102311.16;;;9.00;100.00
54172;BME280;40076;52.354;4.970;2023-02-02T08:57:33;102318.47;;;9.00;100.00
54172;BME280;40076;52.354;4.970;2023-02-02T08:59:58;102321.94;;;9.00;100.00
54172;BME280;40076;52.354;4.970;2023-02-02T09:02:24;102319.81;;;9.02;100.00
54172;BME280;40076;52.354;4.970;2023-02-02T09:04:49;102319.81;;;9.02;100.00
54172;BME280;40076;52.354;4.970;2023-02-02T09:07:14;102322.75;;;9.01;100.00
54172;BME280;40076;52.354;4.970;2023-02-02T09:09:39;102327.88;;;9.02;100.00
54172;BME280;40076;52.354;4.970;2023-02-02T09:12:05;102333.81;;;9.04;100.00
54172;BME280;40076;52.354;4.970;2023-02-02T09:14:30;102337.06;;;9.06;100.00
54172;BME280;40076;52.354;4.970;2023-02-02T09:16:56;102333.56;;;9.06;100.00
54172;BME280;40076;52.354;4.970;2023-02-02T09:19:21;102353.75;;;9.08;100.00
54172;BME280;40076;52.354;4.970;2023-02-02T09:21:50;102344.34;;;9.06;100.00
54172;BME280;40076;52.354;4.970;2023-02-02T09:24:15;102344.91;;;9.08;100.00
54172;BME280;40076;52.354;4.970;2023-02-02T09:26:42;102347.59;;;9.08;100.00
54172;BME280;40076;52.354;4.970;2023-02-02T09:29:11;102355.69;;;9.08;100.00
54172;BME280;40076;52.354;4.970;2023-02-02T09:31:37;102358.63;;;9.06;100.00
54172;BME280;40076;52.354;4.970;2023-02-02T09:34:08;102350.56;;;9.06;100.00
54172;BME280;40076;52.354;4.970;2023-02-02T09:36:34;102355.94;;;9.06;100.00
54172;BME280;40076;52.354;4.970;2023-02-02T09:39:00;102351.06;;;9.08;100.00
54172;BME280;40076;52.354;4.970;2023-02-02T09:49:09;102357.56;;;9.07;100.00
54172;BME280;40076;52.354;4.970;2023-02-02T09:51:43;102353.25;;;9.06;100.00
54172;BME280;40076;52.354;4.970;2023-02-02T09:54:20;102358.38;;;9.08;100.00
54172;BME280;40076;52.354;4.970;2023-02-02T09:56:51;102363.78;;;9.08;100.00
54172;BME280;40076;52.354;4.970;2023-02-02T09:59:29;102367.25;;;9.08;100.00
54172;BME280;40076;52.354;4.970;2023-02-02T10:02:03;102371.03;;;9.07;100.00
54172;BME280;40076;52.354;4.970;2023-02-02T10:04:35;102371.56;;;9.09;100.00
54172;BME280;40076;52.354;4.970;2023-02-02T10:07:14;102370.22;;;9.07;100.00
54172;BME280;40076;52.354;4.970;2023-02-02T10:09:49;102374.53;;;9.13;100.00
54172;BME280;40076;52.354;4.970;2023-02-02T10:18:05;102383.72;;;9.12;100.00
54172;BME280;40076;52.354;4.970;2023-02-02T10:20:40;102379.38;;;9.16;100.00
54172;BME280;40076;52.354;4.970;2023-02-02T10:23:30;102391.25;;;9.15;100.00
54172;BME280;40076;52.354;4.970;2023-02-02T10:26:04;102388.00;;;9.18;100.00
54172;BME280;40076;52.354;4.970;2023-02-02T10:28:52;102391.50;;;9.18;100.00
54172;BME280;40076;52.354;4.970;2023-02-02T10:34:51;102395.00;;;9.24;100.00
54172;BME280;40076;52.354;4.970;2023-02-02T10:45:55;102402.28;;;9.34;100.00
54172;BME280;40076;52.354;4.970;2023-02-02T10:48:26;102401.47;;;9.33;100.00
54172;BME280;40076;52.354;4.970;2023-02-02T10:51:02;102390.69;;;9.33;100.00
54172;BME280;40076;52.354;4.970;2023-02-02T10:53:29;102399.31;;;9.35;100.00
54172;BME280;40076;52.354;4.970;2023-02-02T10:56:02;102395.56;;;9.36;100.00
54172;BME280;40076;52.354;4.970;2023-02-02T10:58:45;102389.88;;;9.38;100.00
54172;BME280;40076;52.354;4.970;2023-02-02T11:01:12;102394.19;;;9.39;100.00
54172;BME280;40076;52.354;4.970;2023-02-02T11:03:41;102397.16;;;9.42;100.00
54172;BME280;40076;52.354;4.970;2023-02-02T11:06:07;102396.88;;;9.44;100.00
54172;BME280;40076;52.354;4.970;2023-02-02T11:08:54;102390.41;;;9.45;100.00
54172;BME280;40076;52.354;4.970;2023-02-02T11:11:37;102398.78;;;9.43;100.00
54172;BME280;40076;52.354;4.970;2023-02-02T11:16:39;102399.59;;;9.44;100.00
54172;BME280;40076;52.354;4.970;2023-02-02T11:19:27;102392.03;;;9.46;100.00
54172;BME280;40076;52.354;4.970;2023-02-02T11:21:53;102399.31;;;9.45;100.00
54172;BME280;40076;52.354;4.970;2023-02-02T11:24:44;102393.91;;;9.45;100.00
54172;BME280;40076;52.354;4.970;2023-02-02T11:27:16;102393.09;;;9.45;100.00
54172;BME280;40076;52.354;4.970;2023-02-02T11:29:48;102395.25;;;9.48;100.00
54172;BME280;40076;52.354;4.970;2023-02-02T11:37:26;102406.31;;;9.51;100.00
54172;BME280;40076;52.354;4.970;2023-02-02T11:39:51;102399.84;;;9.52;100.00
54172;BME280;40076;52.354;4.970;2023-02-02T11:42:22;102390.94;;;9.52;100.00
54172;BME280;40076;52.354;4.970;2023-02-02T11:44:56;102395.25;;;9.53;100.00
54172;BME280;40076;52.354;4.970;2023-02-02T11:47:30;102402.25;;;9.54;100.00
54172;BME280;40076;52.354;4.970;2023-02-02T11:49:59;102392.25;;;9.54;100.00
54172;BME280;40076;52.354;4.970;2023-02-02T11:52:28;102396.06;;;9.53;100.00
54172;BME280;40076;52.354;4.970;2023-02-02T11:54:57;102384.47;;;9.53;100.00
54172;BME280;40076;52.354;4.970;2023-02-02T11:57:25;102389.03;;;9.52;100.00
54172;BME280;40076;52.354;4.970;2023-02-02T12:02:34;102397.94;;;9.53;100.00
54172;BME280;40076;52.354;4.970;2023-02-02T12:07:54;102402.53;;;9.47;100.00
54172;BME280;40076;52.354;4.970;2023-02-02T12:22:09;102391.47;;;9.49;100.00
54172;BME280;40076;52.354;4.970;2023-02-02T12:27:54;102391.47;;;9.49;100.00
54172;BME280;40076;52.354;4.970;2023-02-02T12:39:46;102377.72;;;9.50;100.00
54172;BME280;40076;52.354;4.970;2023-02-02T12:42:50;102388.50;;;9.50;100.00
54172;BME280;40076;52.354;4.970;2023-02-02T12:53:58;102374.19;;;9.50;100.00
54172;BME280;40076;52.354;4.970;2023-02-02T12:56:43;102376.91;;;9.45;100.00
54172;BME280;40076;52.354;4.970;2023-02-02T13:05:17;102382.59;;;9.38;100.00
54172;BME280;40076;52.354;4.970;2023-02-02T13:08:00;102382.59;;;9.38;100.00
54172;BME280;40076;52.354;4.970;2023-02-02T13:10:38;102382.59;;;9.38;100.00
54172;BME280;40076;52.354;4.970;2023-02-02T13:13:15;102386.66;;;9.36;100.00
54172;BME280;40076;52.354;4.970;2023-02-02T13:15:45;102386.66;;;9.31;100.00
54172;BME280;40076;52.354;4.970;2023-02-02T13:18:35;102387.19;;;9.27;100.00
54172;BME280;40076;52.354;4.970;2023-02-02T13:21:14;102388.53;;;9.25;100.00
54172;BME280;40076;52.354;4.970;2023-02-02T13:23:55;102390.97;;;9.21;100.00
54172;BME280;40076;52.354;4.970;2023-02-02T13:26:25;102386.66;;;9.20;100.00
54172;BME280;40076;52.354;4.970;2023-02-02T13:29:18;102384.50;;;9.17;100.00
54172;BME280;40076;52.354;4.970;2023-02-02T13:32:44;102387.47;;;9.16;100.00
54172;BME280;40076;52.354;4.970;2023-02-02T13:40:41;102388.84;;;9.13;100.00
54172;BME280;40076;52.354;4.970;2023-02-02T13:46:11;102394.50;;;9.12;100.00
54172;BME280;40076;52.354;4.970;2023-02-02T13:48:49;102383.44;;;9.13;100.00
54172;BME280;40076;52.354;4.970;2023-02-02T13:51:55;102382.91;;;9.11;100.00
54172;BME280;40076;52.354;4.970;2023-02-02T13:57:48;102383.97;;;9.05;100.00
54172;BME280;40076;52.354;4.970;2023-02-02T14:00:23;102385.34;;;9.08;100.00
54172;BME280;40076;52.354;4.970;2023-02-02T14:03:01;102389.38;;;9.05;100.00
54172;BME280;40076;52.354;4.970;2023-02-02T14:05:37;102398.28;;;9.06;100.00
54172;BME280;40076;52.354;4.970;2023-02-02T14:11:40;102388.81;;;9.03;100.00
54172;BME280;40076;52.354;4.970;2023-02-02T14:14:26;102392.34;;;9.04;100.00
54172;BME280;40076;52.354;4.970;2023-02-02T14:20:57;102395.56;;;9.06;100.00
54172;BME280;40076;52.354;4.970;2023-02-02T14:26:45;102396.09;;;9.03;100.00
54172;BME280;40076;52.354;4.970;2023-02-02T14:37:53;102405.81;;;9.04;100.00
54172;BME280;40076;52.354;4.970;2023-02-02T14:43:34;102413.34;;;9.02;100.00
54172;BME280;40076;52.354;4.970;2023-02-02T14:51:23;102409.84;;;9.01;100.00
54172;BME280;40076;52.354;4.970;2023-02-02T14:53:59;102407.44;;;9.00;100.00
54172;BME280;40076;52.354;4.970;2023-02-02T14:56:52;102414.16;;;9.02;100.00
54172;BME280;40076;52.354;4.970;2023-02-02T14:59:41;102409.59;;;9.03;100.00
54172;BME280;40076;52.354;4.970;2023-02-02T15:02:35;102419.56;;;9.02;100.00
54172;BME280;40076;52.354;4.970;2023-02-02T15:08:13;102431.72;;;9.05;100.00
54172;BME280;40076;52.354;4.970;2023-02-02T15:13:15;102437.09;;;9.05;100.00
54172;BME280;40076;52.354;4.970;2023-02-02T15:15:44;102444.94;;;9.06;100.00
54172;BME280;40076;52.354;4.970;2023-02-02T15:18:24;102446.53;;;9.07;100.00
54172;BME280;40076;52.354;4.970;2023-02-02T15:21:04;102442.50;;;9.05;100.00